• Join FlightAware (Why Join?)
  • Login
  • US Flag 
01:50AM EDT


 

Airport Tracker/Info


-or-


 

Live Flight TrackerFlight Track Log ✈ N81EZ ✈ 25-Feb-2014 ✈ KBTL - KBTL

Flight Track Log - Related Links

Times and Time Zones

All times are in EST time to prevent confusion due to time zone crossing. See the N81EZ flight status page for this flight to view local times or setup timezone preferences in your user account.

Time Position Orientation Groundspeed Altitude Reporting Facility
EST Latitude Longitude Course Direction KTS MPH feet Rate Location/Type
04:20PM 42.2514 -85.2858 75° East 86 99 3,600  Level Chicago Center
04:21PM 42.2478 -85.3175 261° West 84 97 4,100 180 Climbing Chicago Center
04:22PM 42.2650 -85.3567 301° West 105 121 4,000  Descending Chicago Center
04:23PM 42.2817 -85.3789 315° West 99 114 4,100  Climbing Chicago Center
04:24PM 42.3065 -85.2501 253° West  Level Estimated
04:24PM 42.3072 -85.4092 319° Northwest 101 116 4,000  Level Chicago Center
04:25PM 42.3065 -85.2501 75° East  Level Estimated
04:25PM 42.3264 -85.4361 314° West 100 115 4,000  Level Chicago Center
04:26PM 42.3294 -85.4653 278° West 99 114 4,000  Level Chicago Center
04:27PM 42.3256 -85.4997 261° West 93 107 4,000  Level Chicago Center
04:28PM 42.3231 -85.5331 264° West 90 104 4,000  Level Chicago Center
04:29PM 42.3197 -85.5689 263° West 94 108 4,000  Level Chicago Center
04:30PM 42.3161 -85.6114 263° West 95 109 4,000  Level Chicago Center
04:31PM 42.3139 -85.6472 265° West 96 110 4,000  Level Chicago Center
04:32PM 42.3111 -85.6814 264° West 93 107 4,000  Level Chicago Center
04:33PM 42.2914 -85.6939 205° Southwest 115 132 4,000  Level Chicago Center
04:34PM 42.2539 -85.6769 162° South 126 145 4,100  Climbing Chicago Center
04:35PM 42.2197 -85.6647 165° South 127 146 4,100  Level Chicago Center
04:36PM 42.1853 -85.6533 166° South 127 146 4,100 -240 Level Chicago Center
04:37PM 42.1492 -85.6397 164° South 133 153 3,700 -540 Descending Chicago Center
04:38PM 42.1139 -85.6261 164° South 133 153 3,000 -420 Descending Chicago Center
04:39PM 42.0742 -85.6172 171° South 126 145 2,900 -120 Descending Chicago Center
04:40PM 42.0436 -85.6092 169° South 119 137 2,800  Descending Chicago Center
04:42PM 42.0406 -85.5578 95° East 133 153 2,900  Climbing Chicago Center
04:43PM 42.0511 -85.5197 70° East 125 144 2,900 -60 Level Chicago Center
04:44PM 42.0828 -85.5208 359° North 118 136 2,800 -60 Descending Chicago Center
04:45PM 42.1119 -85.5250 354° North 112 129 2,800 -60 Level Chicago Center
04:46PM 42.1464 -85.5319 351° North 107 123 2,700 -300 Descending Chicago Center
04:47PM 42.1711 -85.5381 350° North 98 113 2,200 -600 Descending Chicago Center
04:48PM 42.1972 -85.5447 349° North 96 110 1,500 -420 Descending Chicago Center
04:49PM 42.2233 -85.5508 350° North 96 110 1,400 300 Descending Chicago Center
04:51PM 42.2744 -85.5197 86° East 145 167 2,500 480 Climbing Chicago Center
04:52PM 42.2950 -85.4869 50° Northeast 114 131 3,000 240 Climbing Chicago Center
04:53PM 42.3164 -85.4353 61° Northeast 143 165 3,000  Level Chicago Center
04:54PM 42.3383 -85.3767 63° Northeast 148 170 3,000  Level Chicago Center
04:55PM 42.3544 -85.3311 64° Northeast 140 161 3,000  Level Chicago Center
04:56PM 42.3706 -85.2867 64° Northeast 135 155 3,000  Level Chicago Center
04:57PM 42.3886 -85.2383 63° Northeast 140 161 3,000 -60 Level Chicago Center
04:58PM 42.4075 -85.1914 61° Northeast 142 163 2,900  Descending Chicago Center
04:59PM 42.4267 -85.1350 65° Northeast 139 160 3,000 60 Climbing Chicago Center
05:00PM 42.4433 -85.0869 65° Northeast 139 160 3,100 -240 Climbing Chicago Center
05:01PM 42.4703 -85.0517 44° Northeast 137 158 2,600 -300 Descending Chicago Center
05:02PM 42.4992 -85.0247 35° Northeast 130 150 2,500 -60 Descending Chicago Center
05:03PM 42.4897 -85.0514 244° Southwest 117 135 2,500  Level Chicago Center
05:05PM 42.4567 -85.0664 199° South 103 119 2,500 -120 Level Chicago Center
05:06PM 42.4369 -85.0919 224° Southwest 104 120 2,300 -180 Descending Chicago Center
05:07PM 42.4192 -85.1178 227° Southwest 99 114 2,200 60 Descending Chicago Center
05:08PM 42.4022 -85.1386 222° Southwest 92 106 2,500  Climbing Chicago Center
05:09PM 42.3792 -85.1644 220° Southwest 89 102 2,200 -180 Descending Chicago Center
05:10PM 42.3600 -85.1889 223° Southwest 92 106 2,200 -240 Level Chicago Center
05:11PM 42.3444 -85.2119 228° Southwest 89 102 1,800 -300 Descending Chicago Center
05:12PM 42.3289 -85.2314 223° Southwest 86 99 1,600 -240 Descending Chicago Center